Wyoming, Michigan
Current Conditions -  °F | °C
As of 3:53 PM on Friday 31 Oct 2014 (Local Time) from KGRR Reporting Station
Overcast Overcast  
Wind Chill: 29°   Ceiling: 2900
Heat Index: 38°   Visibility: 10mi
Dew Point: 30°   Wind: 17mph
Humidity: 73%   Direction: 360°N
Pressure: 30.08"   Gusts: 35mph
Location:  42.91°N, 85.69°W
Report Text: KGRR 311953Z 36015G30KT 10SM BKN029 OVC037 03/M01 A3008 RMK AO2 PK WND 01030/1948 SNE17 SLP192 P0001 T00331011
Loading
Personal Weather Stations






























Interactive Weather Map
Tropical Storm Tracking
New forecast layout! Learn more

10-Day Weather Forecast

Advertisements
Track Severe Weather on mobile